Time;durP1;ratioP1;P1;durP2;ratioP2;P2;SDS_P1;SDS_P2;PMS_P1;PMS_P2;Temp;Humidity;BMP_temperature;BMP_pressure;BME280_temperature;BME280_humidity;BME280_pressure;Samples;Min_cycle;Max_cycle;Signal;HPM_P1;HPM_P2
2022/03/26 00:00:22;;;;;;;;;;;;;;;;;;5097262;28;19923;-23
2022/03/26 00:02:48;;;;;;;;;;;;;;;;;;5097062;28;20262;-23
2022/03/26 00:05:15;;;;;;;;;;;;;;;;;;5096981;28;19927;-23
2022/03/26 00:07:41;;;;;;;;;;;;;;;;;;5097054;28;19908;-22
2022/03/26 00:10:07;;;;;;;;;;;;;;;;;;5097087;28;19962;-23
2022/03/26 00:12:33;;;;;;;;;;;;;;;;;;5096886;28;19920;-23
2022/03/26 00:14:59;;;;;;;;;;;;;;;;;;5079097;28;19919;-25
2022/03/26 00:17:25;;;;;;;;;;;;;;;;;;5096852;28;19908;-23
2022/03/26 00:19:51;;;;;;;;;;;;;;;;;;5097165;28;19912;-22
2022/03/26 00:22:17;;;;;;;;;;;;;;;;;;5096957;28;19980;-22
2022/03/26 00:24:43;;;;;;;;;;;;;;;;;;5079041;28;19908;-22
2022/03/26 00:27:09;;;;;;;;;;;;;;;;;;5096738;28;20255;-22
2022/03/26 00:29:35;;;;;;;;;;;;;;;;;;5096135;28;19919;-23
2022/03/26 00:32:04;;;;;;;;;;;;;;;;;;5096913;28;19913;-22
2022/03/26 00:34:30;;;;;;;;;;;;;;;;;;5096483;28;19916;-23
2022/03/26 00:36:56;;;;;;;;;;;;;;;;;;5096490;28;19962;-23
2022/03/26 00:39:22;;;;;;;;;;;;;;;;;;5096771;28;19924;-22
2022/03/26 00:41:48;;;;;;;;;;;;;;;;;;5096568;28;19916;-25
2022/03/26 00:44:16;;;;;;;;;;;;;;;;;;5096420;28;20011;-23
2022/03/26 00:46:42;;;;;;;;;;;;;;;;;;5096578;28;19912;-22
2022/03/26 00:49:08;;;;;;;;;;;;;;;;;;5096306;28;20228;-22
2022/03/26 00:51:35;;;;;;;;;;;;;;;;;;5096279;28;19908;-22
2022/03/26 00:54:01;;;;;;;;;;;;;;;;;;5096411;28;19919;-22
2022/03/26 00:56:27;;;;;;;;;;;;;;;;;;5096437;28;19908;-22
2022/03/26 00:58:53;;;;;;;;;;;;;;;;;;5096710;28;20311;-23
2022/03/26 01:01:19;;;;;;;;;;;;;;;;;;5096052;28;20384;-20
2022/03/26 01:03:45;;;;;;;;;;;;;;;;;;5096328;28;19924;-23
2022/03/26 01:06:11;;;;;;;;;;;;;;;;;;5096620;28;20420;-23
2022/03/26 01:08:37;;;;;;;;;;;;;;;;;;5096231;28;19947;-22
2022/03/26 01:11:04;;;;;;;;;;;;;;;;;;5078101;28;20279;-22
2022/03/26 01:13:32;;;;;;;;;;;;;;;;;;5095863;28;19919;-23
2022/03/26 01:15:57;;;;;;;;;;;;;;;;;;5095747;28;19923;-23
2022/03/26 01:18:23;;;;;;;;;;;;;;;;;;5095834;28;19907;-22
2022/03/26 01:20:49;;;;;;;;;;;;;;;;;;5095776;28;20008;-22
2022/03/26 01:23:19;;;;;;;;;;;;;;;;;;5095869;28;20003;-22
2022/03/26 01:25:45;;;;;;;;;;;;;;;;;;5095944;28;19912;-24
2022/03/26 01:28:11;;;;;;;;;;;;;;;;;;5095638;28;19919;-22
2022/03/26 01:30:37;;;;;;;;;;;;;;;;;;5095631;28;19913;-22
2022/03/26 01:33:03;;;;;;;;;;;;;;;;;;5095798;28;20061;-22
2022/03/26 01:35:29;;;;;;;;;;;;;;;;;;5095793;28;19923;-22
2022/03/26 01:37:55;;;;;;;;;;;;;;;;;;5095503;28;19919;-22
2022/03/26 01:40:21;;;;;;;;;;;;;;;;;;5095333;28;19916;-22
2022/03/26 01:42:47;;;;;;;;;;;;;;;;;;5077459;28;20308;-22
2022/03/26 01:45:13;;;;;;;;;;;;;;;;;;5095449;28;19912;-22
2022/03/26 01:47:39;;;;;;;;;;;;;;;;;;5095606;28;19939;-22
2022/03/26 01:50:05;;;;;;;;;;;;;;;;;;5095405;28;19957;-23
2022/03/26 01:52:31;;;;;;;;;;;;;;;;;;5095238;28;20293;-22
2022/03/26 01:54:57;;;;;;;;;;;;;;;;;;5095309;28;19920;-23
2022/03/26 01:57:24;;;;;;;;;;;;;;;;;;5095511;28;19912;-22
2022/03/26 01:59:50;;;;;;;;;;;;;;;;;;5095210;28;19983;-23
2022/03/26 02:02:16;;;;;;;;;;;;;;;;;;5095291;28;19916;-22
2022/03/26 02:04:42;;;;;;;;;;;;;;;;;;5095040;28;19927;-23
2022/03/26 02:07:08;;;;;;;;;;;;;;;;;;5077419;28;19912;-22
2022/03/26 02:09:35;;;;;;;;;;;;;;;;;;5095124;28;20262;-22
2022/03/26 02:12:01;;;;;;;;;;;;;;;;;;5095048;28;19912;-22
2022/03/26 02:14:27;;;;;;;;;;;;;;;;;;5095345;28;19908;-23
2022/03/26 02:16:53;;;;;;;;;;;;;;;;;;5095599;28;20323;-23
2022/03/26 02:19:20;;;;;;;;;;;;;;;;;;5095486;28;19961;-23
2022/03/26 02:21:49;;;;;;;;;;;;;;;;;;5094780;28;19920;-23
2022/03/26 02:24:15;;;;;;;;;;;;;;;;;;5095642;28;20297;-23
2022/03/26 02:26:40;;;;;;;;;;;;;;;;;;5094954;28;20062;-22
2022/03/26 02:29:07;;;;;;;;;;;;;;;;;;5095027;28;19908;-22
2022/03/26 02:31:33;;;;;;;;;;;;;;;;;;5095142;28;19919;-23
2022/03/26 02:33:59;;;;;;;;;;;;;;;;;;5094876;28;20343;-23
2022/03/26 02:36:25;;;;;;;;;;;;;;;;;;5094850;28;19912;-22
2022/03/26 02:38:51;;;;;;;;;;;;;;;;;;5095176;28;19919;-22
2022/03/26 02:41:17;;;;;;;;;;;;;;;;;;5094757;28;19915;-22
2022/03/26 02:43:43;;;;;;;;;;;;;;;;;;5094771;28;19912;-22
2022/03/26 02:46:09;;;;;;;;;;;;;;;;;;5095337;28;19965;-22
2022/03/26 02:48:35;;;;;;;;;;;;;;;;;;5094798;28;19908;-23
2022/03/26 02:51:01;;;;;;;;;;;;;;;;;;5094701;28;20330;-23
2022/03/26 02:53:27;;;;;;;;;;;;;;;;;;5098320;28;19984;-24
2022/03/26 02:55:53;;;;;;;;;;;;;;;;;;5098539;28;19912;-22
2022/03/26 02:58:19;;;;;;;;;;;;;;;;;;5098456;28;20365;-23
2022/03/26 03:00:45;;;;;;;;;;;;;;;;;;5099052;28;19912;-23
2022/03/26 03:03:12;;;;;;;;;;;;;;;;;;5098014;28;19920;-23
2022/03/26 03:05:37;;;;;;;;;;;;;;;;;;5098663;28;19939;-23
2022/03/26 03:08:03;;;;;;;;;;;;;;;;;;5098266;28;19977;-23
2022/03/26 03:10:30;;;;;;;;;;;;;;;;;;5098334;28;19912;-23
2022/03/26 03:12:56;;;;;;;;;;;;;;;;;;5098354;28;19908;-23
2022/03/26 03:15:22;;;;;;;;;;;;;;;;;;5098179;28;20354;-23
2022/03/26 03:17:48;;;;;;;;;;;;;;;;;;5098361;28;19919;-22
2022/03/26 03:20:14;;;;;;;;;;;;;;;;;;5098095;28;19908;-22
2022/03/26 03:22:40;;;;;;;;;;;;;;;;;;5097855;28;20412;-23
2022/03/26 03:25:06;;;;;;;;;;;;;;;;;;5097860;28;20004;-22
2022/03/26 03:27:32;;;;;;;;;;;;;;;;;;5097901;28;20025;-22
2022/03/26 03:29:58;;;;;;;;;;;;;;;;;;5097889;28;19912;-22
2022/03/26 03:32:24;;;;;;;;;;;;;;;;;;5098284;28;19939;-22
2022/03/26 03:34:51;;;;;;;;;;;;;;;;;;5097766;28;19912;-22
2022/03/26 03:37:17;;;;;;;;;;;;;;;;;;5097681;28;19912;-23
2022/03/26 03:39:43;;;;;;;;;;;;;;;;;;5097682;28;19948;-23
2022/03/26 03:42:09;;;;;;;;;;;;;;;;;;5097500;28;19958;-24
2022/03/26 03:44:35;;;;;;;;;;;;;;;;;;5097825;28;20345;-23
2022/03/26 03:47:01;;;;;;;;;;;;;;;;;;5097516;28;19966;-22
2022/03/26 03:49:29;;;;;;;;;;;;;;;;;;5097450;28;19969;-22
2022/03/26 03:51:55;;;;;;;;;;;;;;;;;;5097618;28;19908;-22
2022/03/26 03:54:21;;;;;;;;;;;;;;;;;;5097671;28;20357;-23
2022/03/26 03:56:47;;;;;;;;;;;;;;;;;;5097364;28;20003;-23
2022/03/26 03:59:13;;;;;;;;;;;;;;;;;;5097309;28;19908;-22
2022/03/26 04:01:39;;;;;;;;;;;;;;;;;;5097153;28;19973;-23
2022/03/26 04:04:05;;;;;;;;;;;;;;;;;;5096934;28;19920;-22
2022/03/26 04:06:31;;;;;;;;;;;;;;;;;;5097137;28;19916;-23
2022/03/26 04:08:57;;;;;;;;;;;;;;;;;;5097079;28;19908;-22
2022/03/26 04:11:23;;;;;;;;;;;;;;;;;;5097622;28;19916;-23
2022/03/26 04:13:52;;;;;;;;;;;;;;;;;;5097023;28;20250;-22
2022/03/26 04:16:18;;;;;;;;;;;;;;;;;;5097278;28;19912;-22
2022/03/26 04:18:44;;;;;;;;;;;;;;;;;;5096916;28;19919;-23
2022/03/26 04:21:10;;;;;;;;;;;;;;;;;;5079102;28;19916;-22
2022/03/26 04:23:36;;;;;;;;;;;;;;;;;;5096974;28;19939;-23
2022/03/26 04:26:02;;;;;;;;;;;;;;;;;;5096704;28;19991;-24
2022/03/26 04:28:28;;;;;;;;;;;;;;;;;;5096989;28;19947;-22
2022/03/26 04:30:54;;;;;;;;;;;;;;;;;;5096989;28;19916;-23
2022/03/26 04:33:20;;;;;;;;;;;;;;;;;;5096563;28;20321;-22
2022/03/26 04:35:46;;;;;;;;;;;;;;;;;;5096597;28;19912;-25
2022/03/26 04:38:12;;;;;;;;;;;;;;;;;;5096555;28;19964;-22
2022/03/26 04:40:38;;;;;;;;;;;;;;;;;;5097066;28;19912;-22
2022/03/26 04:43:04;;;;;;;;;;;;;;;;;;5096322;28;19934;-23
2022/03/26 04:45:30;;;;;;;;;;;;;;;;;;5096350;28;19916;-22
2022/03/26 04:47:56;;;;;;;;;;;;;;;;;;5096300;28;20238;-23
2022/03/26 04:50:22;;;;;;;;;;;;;;;;;;5096284;28;20303;-21
2022/03/26 04:52:48;;;;;;;;;;;;;;;;;;5096342;28;20007;-22
2022/03/26 04:55:14;;;;;;;;;;;;;;;;;;5096256;28;19965;-22
2022/03/26 04:57:41;;;;;;;;;;;;;;;;;;5096124;28;19916;-22
2022/03/26 05:00:08;;;;;;;;;;;;;;;;;;5096099;28;20258;-21
2022/03/26 05:02:35;;;;;;;;;;;;;;;;;;5096147;28;19923;-24
2022/03/26 05:05:01;;;;;;;;;;;;;;;;;;5095832;28;19924;-22
2022/03/26 05:10:11;;;;;;;;;;;;;;;;;;5096004;28;20273;-24
2022/03/26 05:12:37;;;;;;;;;;;;;;;;;;5095903;28;19912;-22
2022/03/26 05:15:03;;;;;;;;;;;;;;;;;;5077444;28;19912;-23
2022/03/26 05:17:29;;;;;;;;;;;;;;;;;;5077695;28;19912;-23
2022/03/26 05:19:55;;;;;;;;;;;;;;;;;;5095715;28;20250;-23
2022/03/26 05:22:21;;;;;;;;;;;;;;;;;;5095550;28;19920;-23
2022/03/26 05:24:47;;;;;;;;;;;;;;;;;;5095559;28;20226;-23
2022/03/26 05:27:13;;;;;;;;;;;;;;;;;;5095512;28;20046;-22
2022/03/26 05:29:39;;;;;;;;;;;;;;;;;;5095529;28;19920;-22
2022/03/26 05:32:06;;;;;;;;;;;;;;;;;;5095884;28;19930;-22
2022/03/26 05:34:32;;;;;;;;;;;;;;;;;;5095410;28;19916;-23
2022/03/26 05:36:58;;;;;;;;;;;;;;;;;;5077627;28;19912;-24
2022/03/26 05:39:24;;;;;;;;;;;;;;;;;;5096003;28;19912;-23
2022/03/26 05:41:50;;;;;;;;;;;;;;;;;;5095218;28;19920;-24
2022/03/26 05:44:16;;;;;;;;;;;;;;;;;;5095622;28;19912;-22
2022/03/26 05:46:42;;;;;;;;;;;;;;;;;;5095389;28;19912;-23
2022/03/26 05:49:09;;;;;;;;;;;;;;;;;;5077608;28;19908;-22
2022/03/26 05:51:35;;;;;;;;;;;;;;;;;;5095567;28;19971;-22
2022/03/26 05:54:01;;;;;;;;;;;;;;;;;;5095138;28;19916;-24
2022/03/26 05:56:27;;;;;;;;;;;;;;;;;;5095327;28;19908;-23
2022/03/26 05:58:53;;;;;;;;;;;;;;;;;;5095515;28;20006;-23
2022/03/26 06:01:21;;;;;;;;;;;;;;;;;;5095069;28;20243;-23
2022/03/26 06:03:47;;;;;;;;;;;;;;;;;;5095182;28;19919;-23
2022/03/26 06:06:13;;;;;;;;;;;;;;;;;;5095139;28;19915;-22
2022/03/26 06:08:39;;;;;;;;;;;;;;;;;;5094897;28;19958;-22
2022/03/26 06:11:05;;;;;;;;;;;;;;;;;;5077280;28;20355;-22
2022/03/26 06:13:31;;;;;;;;;;;;;;;;;;5094912;28;19970;-23
2022/03/26 06:15:57;;;;;;;;;;;;;;;;;;5095796;28;19912;-22
2022/03/26 06:18:23;;;;;;;;;;;;;;;;;;5094870;28;19912;-23
2022/03/26 06:20:49;;;;;;;;;;;;;;;;;;5095169;28;19912;-22
2022/03/26 06:23:15;;;;;;;;;;;;;;;;;;5094891;28;20020;-23
2022/03/26 06:25:41;;;;;;;;;;;;;;;;;;5077039;28;19912;-24
2022/03/26 06:28:07;;;;;;;;;;;;;;;;;;5097861;28;19908;-23
2022/03/26 06:30:33;;;;;;;;;;;;;;;;;;5080846;28;20038;-23
2022/03/26 06:32:59;;;;;;;;;;;;;;;;;;5099164;28;19912;-23
2022/03/26 06:35:25;;;;;;;;;;;;;;;;;;5098647;28;19912;-23
2022/03/26 06:37:51;;;;;;;;;;;;;;;;;;5098855;28;19919;-22
2022/03/26 06:40:17;;;;;;;;;;;;;;;;;;5098542;28;19969;-23
2022/03/26 06:42:43;;;;;;;;;;;;;;;;;;5098460;28;20231;-24
2022/03/26 06:45:09;;;;;;;;;;;;;;;;;;5098803;28;19908;-23
2022/03/26 06:47:35;;;;;;;;;;;;;;;;;;5098668;28;19977;-22
2022/03/26 06:50:01;;;;;;;;;;;;;;;;;;5099041;28;19976;-23
2022/03/26 06:52:27;;;;;;;;;;;;;;;;;;5098347;28;20366;-23
2022/03/26 06:54:53;;;;;;;;;;;;;;;;;;5098442;28;19916;-23
2022/03/26 06:57:19;;;;;;;;;;;;;;;;;;5098319;28;20003;-22
2022/03/26 06:59:45;;;;;;;;;;;;;;;;;;5098702;28;19908;-22
2022/03/26 07:02:12;;;;;;;;;;;;;;;;;;5098222;28;19916;-24
2022/03/26 07:04:38;;;;;;;;;;;;;;;;;;5112023;28;19920;-22
2022/03/26 07:07:05;;;;;;;;;;;;;;;;;;5118238;28;20006;-22
2022/03/26 07:09:31;;;;;;;;;;;;;;;;;;5118609;28;19912;-23
2022/03/26 07:11:57;;;;;;;;;;;;;;;;;;5118636;28;19919;-22
2022/03/26 07:14:23;;;;;;;;;;;;;;;;;;5118581;28;19912;-22
2022/03/26 07:16:49;;;;;;;;;;;;;;;;;;5119089;28;20073;-22
2022/03/26 07:19:15;;;;;;;;;;;;;;;;;;5118449;28;19907;-23
2022/03/26 07:21:41;;;;;;;;;;;;;;;;;;5118326;28;19930;-23
2022/03/26 07:24:07;;;;;;;;;;;;;;;;;;5118196;28;19908;-22
2022/03/26 07:26:33;;;;;;;;;;;;;;;;;;5118168;28;19958;-22
2022/03/26 07:28:59;;;;;;;;;;;;;;;;;;5118155;28;20024;-22
2022/03/26 07:31:25;;;;;;;;;;;;;;;;;;5117987;28;19912;-23
2022/03/26 07:33:51;;;;;;;;;;;;;;;;;;5118256;28;19908;-22
2022/03/26 07:36:17;;;;;;;;;;;;;;;;;;5118018;28;20365;-22
2022/03/26 07:38:43;;;;;;;;;;;;;;;;;;5117767;28;19907;-23
2022/03/26 07:41:09;;;;;;;;;;;;;;;;;;5100019;28;20381;-23
2022/03/26 07:43:36;;;;;;;;;;;;;;;;;;5117791;28;19915;-23
2022/03/26 07:46:02;;;;;;;;;;;;;;;;;;5117807;28;19923;-24
2022/03/26 07:48:28;;;;;;;;;;;;;;;;;;5117683;28;19908;-22
2022/03/26 07:50:54;;;;;;;;;;;;;;;;;;5117781;28;19911;-22
2022/03/26 07:53:22;;;;;;;;;;;;;;;;;;5099627;28;20331;-22
2022/03/26 07:55:48;;;;;;;;;;;;;;;;;;5117663;28;19908;-23
2022/03/26 07:58:14;;;;;;;;;;;;;;;;;;5117527;28;19912;-22
2022/03/26 08:00:40;;;;;;;;;;;;;;;;;;5117514;28;19981;-22
2022/03/26 08:03:06;;;;;;;;;;;;;;;;;;5117889;28;19923;-24
2022/03/26 08:05:32;;;;;;;;;;;;;;;;;;5117904;28;19911;-23
2022/03/26 08:07:58;;;;;;;;;;;;;;;;;;5117513;28;19969;-23
2022/03/26 08:10:24;;;;;;;;;;;;;;;;;;5117525;28;19911;-22
2022/03/26 08:12:50;;;;;;;;;;;;;;;;;;5117333;28;20358;-23
2022/03/26 08:15:16;;;;;;;;;;;;;;;;;;5117145;28;19912;-24
2022/03/26 08:17:42;;;;;;;;;;;;;;;;;;5117495;28;19907;-23
2022/03/26 08:20:08;;;;;;;;;;;;;;;;;;5117177;28;19935;-22
2022/03/26 08:22:34;;;;;;;;;;;;;;;;;;5117044;28;19962;-23
2022/03/26 08:25:00;;;;;;;;;;;;;;;;;;5099175;28;19926;-23
2022/03/26 08:27:26;;;;;;;;;;;;;;;;;;5117379;28;19912;-22
2022/03/26 08:29:52;;;;;;;;;;;;;;;;;;5099004;28;20368;-22
2022/03/26 08:32:18;;;;;;;;;;;;;;;;;;5099644;28;19911;-22
2022/03/26 08:34:44;;;;;;;;;;;;;;;;;;5117383;28;20270;-27
2022/03/26 08:37:10;;;;;;;;;;;;;;;;;;5116837;28;19969;-23
2022/03/26 08:39:36;;;;;;;;;;;;;;;;;;5116856;28;19915;-23
2022/03/26 08:42:03;;;;;;;;;;;;;;;;;;5116836;28;20396;-23
2022/03/26 08:44:29;;;;;;;;;;;;;;;;;;5116769;28;19907;-23
2022/03/26 08:46:55;;;;;;;;;;;;;;;;;;5098583;28;19918;-22
2022/03/26 08:49:21;;;;;;;;;;;;;;;;;;5116083;28;19912;-23
2022/03/26 08:51:47;;;;;;;;;;;;;;;;;;5116649;28;19919;-24
2022/03/26 08:54:13;;;;;;;;;;;;;;;;;;5098557;28;20361;-24
2022/03/26 08:56:39;;;;;;;;;;;;;;;;;;5116409;28;19908;-22
2022/03/26 08:59:05;;;;;;;;;;;;;;;;;;5116334;28;19908;-22
2022/03/26 09:01:31;;;;;;;;;;;;;;;;;;5116296;28;19973;-23
2022/03/26 09:03:57;;;;;;;;;;;;;;;;;;5116318;28;19915;-23
2022/03/26 09:06:23;;;;;;;;;;;;;;;;;;5098197;28;19919;-23
2022/03/26 09:08:50;;;;;;;;;;;;;;;;;;5098239;28;19908;-23
2022/03/26 09:11:16;;;;;;;;;;;;;;;;;;5116095;28;20354;-21
2022/03/26 09:13:45;;;;;;;;;;;;;;;;;;5115322;28;23197;-20
2022/03/26 09:16:11;;;;;;;;;;;;;;;;;;5115973;28;19926;-25
2022/03/26 09:18:37;;;;;;;;;;;;;;;;;;5098989;28;19912;-22
2022/03/26 09:21:03;;;;;;;;;;;;;;;;;;5098063;28;20342;-21
2022/03/26 09:23:29;;;;;;;;;;;;;;;;;;5115809;28;19912;-22
2022/03/26 09:25:56;;;;;;;;;;;;;;;;;;5116143;28;19964;-21
2022/03/26 09:28:22;;;;;;;;;;;;;;;;;;5115917;28;19923;-22
2022/03/26 09:30:49;;;;;;;;;;;;;;;;;;5115989;28;19911;-22
2022/03/26 09:33:15;;;;;;;;;;;;;;;;;;5115777;28;19915;-23
2022/03/26 09:35:41;;;;;;;;;;;;;;;;;;5116352;28;19912;-22
2022/03/26 09:38:07;;;;;;;;;;;;;;;;;;5115800;28;19916;-26
2022/03/26 09:40:33;;;;;;;;;;;;;;;;;;5115807;28;19913;-24
2022/03/26 09:42:59;;;;;;;;;;;;;;;;;;5115819;28;20250;-21
2022/03/26 09:45:25;;;;;;;;;;;;;;;;;;5116267;28;19919;-21
2022/03/26 09:47:51;;;;;;;;;;;;;;;;;;5115947;28;19912;-22
2022/03/26 09:50:19;;;;;;;;;;;;;;;;;;5115689;28;19912;-21
2022/03/26 09:52:45;;;;;;;;;;;;;;;;;;5115560;28;20357;-22
2022/03/26 09:55:12;;;;;;;;;;;;;;;;;;5116093;28;19912;-22
2022/03/26 09:57:38;;;;;;;;;;;;;;;;;;5115855;28;20266;-22
2022/03/26 10:00:04;;;;;;;;;;;;;;;;;;5115406;28;19912;-23
2022/03/26 10:02:30;;;;;;;;;;;;;;;;;;5115214;28;19923;-22
2022/03/26 10:04:56;;;;;;;;;;;;;;;;;;5115424;28;19972;-24
2022/03/26 10:07:22;;;;;;;;;;;;;;;;;;5115232;28;19977;-22
2022/03/26 10:09:48;;;;;;;;;;;;;;;;;;5116011;28;19920;-22
2022/03/26 10:12:14;;;;;;;;;;;;;;;;;;5115336;28;19963;-22
2022/03/26 10:14:40;;;;;;;;;;;;;;;;;;5115961;28;19927;-23
2022/03/26 10:17:06;;;;;;;;;;;;;;;;;;5115364;28;19911;-23
2022/03/26 10:19:32;;;;;;;;;;;;;;;;;;5115840;28;19954;-23
2022/03/26 10:21:58;;;;;;;;;;;;;;;;;;5115182;28;20261;-23
2022/03/26 10:24:24;;;;;;;;;;;;;;;;;;5115316;28;19911;-22
2022/03/26 10:26:50;;;;;;;;;;;;;;;;;;5115431;28;19933;-23
2022/03/26 10:29:16;;;;;;;;;;;;;;;;;;5115295;28;19939;-23
2022/03/26 10:34:27;;;;;;;;;;;;;;;;;;5115600;28;19918;-24
2022/03/26 10:36:53;;;;;;;;;;;;;;;;;;5097169;28;20358;-25
2022/03/26 10:39:18;;;;;;;;;;;;;;;;;;5115373;28;19919;-24
2022/03/26 10:41:44;;;;;;;;;;;;;;;;;;5115224;28;19969;-23
2022/03/26 10:44:11;;;;;;;;;;;;;;;;;;5115422;28;20246;-22
2022/03/26 10:46:36;;;;;;;;;;;;;;;;;;5115152;28;19912;-23
2022/03/26 10:49:02;;;;;;;;;;;;;;;;;;5115651;28;20379;-23
2022/03/26 10:51:28;;;;;;;;;;;;;;;;;;5114998;28;19930;-22
2022/03/26 10:53:57;;;;;;;;;;;;;;;;;;5114919;28;20258;-23
2022/03/26 10:56:23;;;;;;;;;;;;;;;;;;5114841;28;19911;-23
2022/03/26 10:58:49;;;;;;;;;;;;;;;;;;5114899;28;19998;-23
2022/03/26 11:01:15;;;;;;;;;;;;;;;;;;5115255;28;19947;-22
2022/03/26 11:03:41;;;;;;;;;;;;;;;;;;5114703;28;19916;-22
2022/03/26 11:06:08;;;;;;;;;;;;;;;;;;5114680;28;19920;-24
2022/03/26 11:08:34;;;;;;;;;;;;;;;;;;5114888;28;19911;-23
2022/03/26 11:11:00;;;;;;;;;;;;;;;;;;5114862;28;20299;-23
2022/03/26 11:13:26;;;;;;;;;;;;;;;;;;5116712;28;20007;-24
2022/03/26 11:15:52;;;;;;;;;;;;;;;;;;5118462;28;19964;-23
2022/03/26 11:18:18;;;;;;;;;;;;;;;;;;5100519;28;19907;-22
2022/03/26 11:20:45;;;;;;;;;;;;;;;;;;5118606;28;20250;-22
2022/03/26 11:23:11;;;;;;;;;;;;;;;;;;5118371;28;19927;-22
2022/03/26 11:25:37;;;;;;;;;;;;;;;;;;5118251;28;19999;-22
2022/03/26 11:28:03;;;;;;;;;;;;;;;;;;5118186;28;19947;-23
2022/03/26 11:30:29;;;;;;;;;;;;;;;;;;5118246;28;19991;-22
2022/03/26 11:32:56;;;;;;;;;;;;;;;;;;5118047;28;20350;-22
2022/03/26 11:35:22;;;;;;;;;;;;;;;;;;5118358;28;20264;-23
2022/03/26 11:37:48;;;;;;;;;;;;;;;;;;5117908;28;20343;-23
2022/03/26 11:40:14;;;;;;;;;;;;;;;;;;5118512;28;19911;-23
2022/03/26 11:42:40;;;;;;;;;;;;;;;;;;5117782;28;19912;-23
2022/03/26 11:50:41;;;;;;;;;;;;;;;;;;5118086;28;19922;-24
2022/03/26 11:53:08;;;;;;;;;;;;;;;;;;5117787;28;20003;-27
2022/03/26 11:55:34;;;;;;;;;;;;;;;;;;5117924;28;20280;-22
2022/03/26 11:58:00;;;;;;;;;;;;;;;;;;5099838;28;19918;-22
2022/03/26 12:00:26;;;;;;;;;;;;;;;;;;5117721;28;20262;-23
2022/03/26 12:02:52;;;;;;;;;;;;;;;;;;5099588;28;19911;-22
2022/03/26 12:08:02;;;;;;;;;;;;;;;;;;5117670;28;19970;-23
2022/03/26 12:10:28;;;;;;;;;;;;;;;;;;5117580;28;19912;-24
2022/03/26 12:12:54;;;;;;;;;;;;;;;;;;5117433;28;19969;-23
2022/03/26 12:15:20;;;;;;;;;;;;;;;;;;5117428;28;19923;-24
2022/03/26 12:17:46;;;;;;;;;;;;;;;;;;5117427;28;19908;-24
2022/03/26 12:20:12;;;;;;;;;;;;;;;;;;5117927;28;19912;-23
2022/03/26 12:22:39;;;;;;;;;;;;;;;;;;5117708;28;19918;-22
2022/03/26 12:25:05;;;;;;;;;;;;;;;;;;5098192;28;19916;-24
2022/03/26 12:27:31;;;;;;;;;;;;;;;;;;5117485;28;20008;-23
2022/03/26 12:29:58;;;;;;;;;;;;;;;;;;5117047;28;19911;-22
2022/03/26 12:32:24;;;;;;;;;;;;;;;;;;5117324;28;20254;-22
2022/03/26 12:34:50;;;;;;;;;;;;;;;;;;5117361;28;19912;-22
2022/03/26 12:37:16;;;;;;;;;;;;;;;;;;5117030;28;19916;-23
2022/03/26 12:39:42;;;;;;;;;;;;;;;;;;5116942;28;20261;-25
2022/03/26 12:42:08;;;;;;;;;;;;;;;;;;5117016;28;19915;-22
2022/03/26 12:44:34;;;;;;;;;;;;;;;;;;5116911;28;19938;-23
2022/03/26 12:47:00;;;;;;;;;;;;;;;;;;5117081;28;20292;-23
2022/03/26 12:49:26;;;;;;;;;;;;;;;;;;5116762;28;19908;-23
2022/03/26 12:51:53;;;;;;;;;;;;;;;;;;5116865;28;20219;-23
2022/03/26 12:54:19;;;;;;;;;;;;;;;;;;5116871;28;19908;-23
2022/03/26 12:56:45;;;;;;;;;;;;;;;;;;5116910;28;19911;-24
2022/03/26 12:59:11;;;;;;;;;;;;;;;;;;5116590;28;20261;-23
2022/03/26 13:01:37;;;;;;;;;;;;;;;;;;5116716;28;19919;-22
2022/03/26 13:04:03;;;;;;;;;;;;;;;;;;5116333;28;19908;-23
2022/03/26 13:06:30;;;;;;;;;;;;;;;;;;5116675;28;19924;-23
2022/03/26 13:08:57;;;;;;;;;;;;;;;;;;5116366;28;20006;-23
2022/03/26 13:11:23;;;;;;;;;;;;;;;;;;5116349;28;19920;-22
2022/03/26 13:13:49;;;;;;;;;;;;;;;;;;5116825;28;19964;-22
2022/03/26 13:16:15;;;;;;;;;;;;;;;;;;5116623;28;19923;-23
2022/03/26 13:18:41;;;;;;;;;;;;;;;;;;5116239;28;19912;-24
2022/03/26 13:21:07;;;;;;;;;;;;;;;;;;5116427;28;19912;-23
2022/03/26 13:23:33;;;;;;;;;;;;;;;;;;5115974;28;19927;-23
2022/03/26 13:25:59;;;;;;;;;;;;;;;;;;5116153;28;19961;-22
2022/03/26 13:28:25;;;;;;;;;;;;;;;;;;5116066;28;19912;-23
2022/03/26 13:30:51;;;;;;;;;;;;;;;;;;5116054;28;19981;-23
2022/03/26 13:33:17;;;;;;;;;;;;;;;;;;5115915;28;19918;-23
2022/03/26 13:35:43;;;;;;;;;;;;;;;;;;5115845;28;19912;-23
2022/03/26 13:38:09;;;;;;;;;;;;;;;;;;5115909;28;19907;-23
2022/03/26 13:40:36;;;;;;;;;;;;;;;;;;5115788;28;19919;-23
2022/03/26 13:43:02;;;;;;;;;;;;;;;;;;5115999;28;20305;-23
2022/03/26 13:45:28;;;;;;;;;;;;;;;;;;5115821;28;19947;-23
2022/03/26 13:47:54;;;;;;;;;;;;;;;;;;5115761;28;20338;-23
2022/03/26 13:50:20;;;;;;;;;;;;;;;;;;5115976;28;19919;-23
2022/03/26 13:52:47;;;;;;;;;;;;;;;;;;5115589;28;20006;-21
2022/03/26 13:55:13;;;;;;;;;;;;;;;;;;5115903;28;19912;-20
2022/03/26 13:57:39;;;;;;;;;;;;;;;;;;5115903;28;19922;-22
2022/03/26 14:00:05;;;;;;;;;;;;;;;;;;5115666;28;20253;-21
2022/03/26 14:02:31;;;;;;;;;;;;;;;;;;5115688;28;19923;-22
2022/03/26 14:04:57;;;;;;;;;;;;;;;;;;5115862;28;20403;-22
2022/03/26 14:07:23;;;;;;;;;;;;;;;;;;5115430;28;19927;-21
2022/03/26 14:09:49;;;;;;;;;;;;;;;;;;5115577;28;20250;-22
2022/03/26 14:12:15;;;;;;;;;;;;;;;;;;5115410;28;19999;-21
2022/03/26 14:14:41;;;;;;;;;;;;;;;;;;5115464;28;19922;-22
2022/03/26 14:17:07;;;;;;;;;;;;;;;;;;5115479;28;20347;-22
2022/03/26 14:19:33;;;;;;;;;;;;;;;;;;5115743;28;19915;-21
2022/03/26 14:21:59;;;;;;;;;;;;;;;;;;5115567;28;19916;-21
2022/03/26 14:24:25;;;;;;;;;;;;;;;;;;5115385;28;20369;-21
2022/03/26 14:26:51;;;;;;;;;;;;;;;;;;5115638;28;19920;-22
2022/03/26 14:29:17;;;;;;;;;;;;;;;;;;5115389;28;20002;-22
2022/03/26 14:31:43;;;;;;;;;;;;;;;;;;5115849;28;20346;-21
2022/03/26 14:34:09;;;;;;;;;;;;;;;;;;5115307;28;19913;-21
2022/03/26 14:36:35;;;;;;;;;;;;;;;;;;5115820;28;19908;-21
2022/03/26 14:39:01;;;;;;;;;;;;;;;;;;5115252;28;20342;-21
2022/03/26 14:41:27;;;;;;;;;;;;;;;;;;5115455;28;19915;-21
2022/03/26 14:43:53;;;;;;;;;;;;;;;;;;5115125;28;19911;-22
2022/03/26 14:46:19;;;;;;;;;;;;;;;;;;5115718;28;19920;-21
2022/03/26 14:48:44;;;;;;;;;;;;;;;;;;5118185;28;19934;-23
2022/03/26 14:51:11;;;;;;;;;;;;;;;;;;5119144;28;20259;-22
2022/03/26 14:53:37;;;;;;;;;;;;;;;;;;5119010;28;19912;-22
2022/03/26 14:56:04;;;;;;;;;;;;;;;;;;5118986;28;19911;-21
2022/03/26 14:58:30;;;;;;;;;;;;;;;;;;5118929;28;19912;-21
2022/03/26 15:00:56;;;;;;;;;;;;;;;;;;5119508;28;19912;-22
2022/03/26 15:03:24;;;;;;;;;;;;;;;;;;5119267;28;19943;-22
2022/03/26 15:05:50;;;;;;;;;;;;;;;;;;5118572;28;19958;-22
2022/03/26 15:08:16;;;;;;;;;;;;;;;;;;5119375;28;19911;-21
2022/03/26 15:10:42;;;;;;;;;;;;;;;;;;5118697;28;19911;-22
2022/03/26 15:13:08;;;;;;;;;;;;;;;;;;5118854;28;19915;-21
2022/03/26 15:15:34;;;;;;;;;;;;;;;;;;5118873;28;19955;-21
2022/03/26 15:18:00;;;;;;;;;;;;;;;;;;5118842;28;20371;-21
2022/03/26 15:20:26;;;;;;;;;;;;;;;;;;5118728;28;20274;-23
2022/03/26 15:22:52;;;;;;;;;;;;;;;;;;5118860;28;19912;-22
2022/03/26 15:25:18;;;;;;;;;;;;;;;;;;5118634;28;20238;-22
2022/03/26 15:27:44;;;;;;;;;;;;;;;;;;5118358;28;19919;-22
2022/03/26 15:30:10;;;;;;;;;;;;;;;;;;5118603;28;19919;-25
2022/03/26 15:32:36;;;;;;;;;;;;;;;;;;5100271;28;20335;-22
2022/03/26 15:35:03;;;;;;;;;;;;;;;;;;5118254;28;20342;-23
2022/03/26 15:37:29;;;;;;;;;;;;;;;;;;5118380;28;20220;-23
2022/03/26 15:39:55;;;;;;;;;;;;;;;;;;5118155;28;19912;-23
2022/03/26 15:42:21;;;;;;;;;;;;;;;;;;5118199;28;19923;-23
2022/03/26 15:44:47;;;;;;;;;;;;;;;;;;5118347;28;20238;-23
2022/03/26 15:47:13;;;;;;;;;;;;;;;;;;5117945;28;19981;-20
2022/03/26 15:49:39;;;;;;;;;;;;;;;;;;5117928;28;20398;-21
2022/03/26 15:52:05;;;;;;;;;;;;;;;;;;5118423;28;19907;-21
2022/03/26 15:54:31;;;;;;;;;;;;;;;;;;5117883;28;20224;-21
2022/03/26 15:56:57;;;;;;;;;;;;;;;;;;5117804;28;20057;-20
2022/03/26 15:59:24;;;;;;;;;;;;;;;;;;5117551;28;19912;-21
2022/03/26 16:01:50;;;;;;;;;;;;;;;;;;5117815;28;20234;-21
2022/03/26 16:04:16;;;;;;;;;;;;;;;;;;5117988;28;20266;-22
2022/03/26 16:06:42;;;;;;;;;;;;;;;;;;5117752;28;19927;-22
2022/03/26 16:09:08;;;;;;;;;;;;;;;;;;5118177;28;19912;-22
2022/03/26 16:11:34;;;;;;;;;;;;;;;;;;5117580;28;19957;-23
2022/03/26 16:14:00;;;;;;;;;;;;;;;;;;5117511;28;19923;-25
2022/03/26 16:16:33;;;;;;;;;;;;;;;;;;5117434;28;19969;-22
2022/03/26 16:18:59;;;;;;;;;;;;;;;;;;5117712;28;19908;-22
2022/03/26 16:21:25;;;;;;;;;;;;;;;;;;5117389;28;20376;-22
2022/03/26 16:23:51;;;;;;;;;;;;;;;;;;5117147;28;19927;-24
2022/03/26 16:26:17;;;;;;;;;;;;;;;;;;5117208;28;19922;-22
2022/03/26 16:28:43;;;;;;;;;;;;;;;;;;5117244;28;19918;-22
2022/03/26 16:31:09;;;;;;;;;;;;;;;;;;5117116;28;19908;-22
2022/03/26 16:33:35;;;;;;;;;;;;;;;;;;5117072;28;19967;-22
2022/03/26 16:36:01;;;;;;;;;;;;;;;;;;5117050;28;19926;-22
2022/03/26 16:38:27;;;;;;;;;;;;;;;;;;5117039;28;19915;-24
2022/03/26 16:40:53;;;;;;;;;;;;;;;;;;5117003;28;19912;-24
2022/03/26 16:43:19;;;;;;;;;;;;;;;;;;5098825;28;19912;-22
2022/03/26 16:45:45;;;;;;;;;;;;;;;;;;5117388;28;19918;-22
2022/03/26 16:48:11;;;;;;;;;;;;;;;;;;5117103;28;20293;-22
2022/03/26 16:50:37;;;;;;;;;;;;;;;;;;5117023;28;20349;-22